Time,TemperatureF,DewpointF,PressureIn,WindDirection,WindDirectionDegrees,WindSpeedMPH,WindSpeedGustMPH,Humidity,HourlyPrecipIn,Conditions,Clouds,dailyrainin,SoftwareType,DateUTC
2015-09-02 00:03:00,74.8,66.4,29.91,SSE,167,0.0,2.7,75,0.00,,---,0.00,VWS V14.00,2015-09-02 05:03:00,
2015-09-02 00:08:00,74.8,66.8,29.91,SSE,167,0.0,0.0,76,0.00,,---,0.00,VWS V14.00,2015-09-02 05:08:00,
2015-09-02 00:13:00,74.7,66.6,29.91,SSE,167,0.0,0.0,76,0.00,,---,0.00,VWS V14.00,2015-09-02 05:13:00,
2015-09-02 00:18:00,74.7,66.6,29.91,SSE,167,0.0,0.0,76,0.00,,---,0.00,VWS V14.00,2015-09-02 05:18:00,
2015-09-02 00:23:00,74.7,66.6,29.91,SSE,168,0.0,0.0,76,0.00,,---,0.00,VWS V14.00,2015-09-02 05:23:00,
2015-09-02 00:28:00,74.5,66.0,29.91,SSE,167,0.0,2.2,75,0.00,,---,0.00,VWS V14.00,2015-09-02 05:28:00,
2015-09-02 00:33:00,74.5,66.4,29.91,SSE,167,0.0,0.0,76,0.00,,---,0.00,VWS V14.00,2015-09-02 05:33:00,
2015-09-02 00:38:00,74.5,66.4,29.91,SSE,167,0.0,0.0,76,0.00,,---,0.00,VWS V14.00,2015-09-02 05:38:00,
2015-09-02 00:43:00,74.7,66.6,29.91,SSE,167,0.0,0.0,76,0.00,,---,0.00,VWS V14.00,2015-09-02 05:43:00,
2015-09-02 00:48:00,74.8,67.2,29.94,SSE,167,0.0,0.0,77,0.00,,---,0.00,VWS V14.00,2015-09-02 05:48:00,
2015-09-02 00:53:00,74.8,67.2,29.94,SSE,167,0.0,0.0,77,0.00,,---,0.00,VWS V14.00,2015-09-02 05:53:00,
2015-09-02 00:58:00,74.8,66.8,29.94,SSE,168,0.0,2.7,76,0.00,,---,0.00,VWS V14.00,2015-09-02 05:58:00,
2015-09-02 01:03:00,74.8,66.4,29.91,SSE,167,0.0,3.1,75,0.00,,---,0.00,VWS V14.00,2015-09-02 06:03:00,
2015-09-02 01:08:00,74.8,66.4,29.91,SSE,167,2.2,2.2,75,0.00,,---,0.00,VWS V14.00,2015-09-02 06:08:00,
2015-09-02 01:13:00,74.8,66.0,29.91,SSE,167,0.0,2.7,74,0.00,,---,0.00,VWS V14.00,2015-09-02 06:13:00,
2015-09-02 01:18:00,74.7,65.8,29.91,SSE,167,0.0,0.0,74,0.00,,---,0.00,VWS V14.00,2015-09-02 06:18:00,
2015-09-02 01:23:00,74.5,65.3,29.91,SSE,167,0.0,0.0,73,0.00,,---,0.00,VWS V14.00,2015-09-02 06:23:00,
2015-09-02 01:28:00,74.3,65.1,29.91,SSE,168,0.0,0.0,73,0.00,,---,0.00,VWS V14.00,2015-09-02 06:28:00,
2015-09-02 01:38:00,73.9,64.8,29.91,SSE,167,0.0,0.0,73,0.00,,---,0.00,VWS V14.00,2015-09-02 06:38:00,
2015-09-02 01:43:00,73.8,64.6,29.91,SSE,167,0.0,0.0,73,0.00,,---,0.00,VWS V14.00,2015-09-02 06:43:00,
2015-09-02 01:48:00,73.6,64.4,29.91,SSE,167,0.0,3.6,73,0.00,,---,0.00,VWS V14.00,2015-09-02 06:48:00,
2015-09-02 01:53:00,73.8,65.7,29.91,SSW,199,2.2,2.7,76,0.00,,---,0.00,VWS V14.00,2015-09-02 06:53:00,
2015-09-02 01:58:00,73.9,66.7,29.91,SSW,198,0.0,3.1,78,0.00,,---,0.00,VWS V14.00,2015-09-02 06:58:00,
2015-09-02 02:03:00,74.3,67.7,29.91,SSW,202,0.0,3.1,80,0.00,,---,0.00,VWS V14.00,2015-09-02 07:03:00,
2015-09-02 02:08:00,74.3,67.7,29.91,SSW,208,2.2,3.1,80,0.00,,---,0.00,VWS V14.00,2015-09-02 07:08:00,
2015-09-02 02:13:00,74.3,67.4,29.91,South,186,0.0,3.6,79,0.04,,---,0.04,VWS V14.00,2015-09-02 07:13:00,
2015-09-02 02:18:00,74.1,67.2,29.91,South,170,0.0,0.0,79,0.04,,---,0.04,VWS V14.00,2015-09-02 07:18:00,
2015-09-02 02:23:00,73.9,66.7,29.91,South,182,2.2,3.6,78,0.04,,---,0.04,VWS V14.00,2015-09-02 07:23:00,
2015-09-02 02:28:00,73.9,67.0,29.91,SSW,197,0.0,3.6,79,0.04,,---,0.04,VWS V14.00,2015-09-02 07:28:00,
2015-09-02 02:34:00,73.9,67.4,29.91,SSW,208,4.0,4.0,80,0.04,,---,0.04,VWS V14.00,2015-09-02 07:34:00,
2015-09-02 02:39:00,73.9,67.4,29.91,SSW,192,3.6,3.6,80,0.04,,---,0.04,VWS V14.00,2015-09-02 07:39:00,
2015-09-02 02:44:00,73.9,67.8,29.91,SSW,213,2.7,3.6,81,0.04,,---,0.04,VWS V14.00,2015-09-02 07:44:00,
2015-09-02 02:49:00,73.9,67.8,29.91,SSW,198,2.2,4.9,81,0.04,,---,0.04,VWS V14.00,2015-09-02 07:49:00,
2015-09-02 02:54:00,74.1,67.9,29.91,SW,217,3.1,5.4,81,0.04,,---,0.04,VWS V14.00,2015-09-02 07:54:00,
2015-09-02 02:59:00,74.1,68.3,29.91,SSW,213,2.7,3.1,82,0.04,,---,0.04,VWS V14.00,2015-09-02 07:59:00,
2015-09-02 03:04:00,74.1,68.3,29.91,SSW,210,2.7,3.6,82,0.08,,---,0.08,VWS V14.00,2015-09-02 08:04:00,
2015-09-02 03:09:00,73.9,68.5,29.91,SW,216,0.0,4.9,83,0.08,,---,0.08,VWS V14.00,2015-09-02 08:09:00,
2015-09-02 03:14:00,73.9,68.5,29.91,SW,217,5.4,5.4,83,0.04,,---,0.08,VWS V14.00,2015-09-02 08:14:00,
2015-09-02 03:19:00,73.9,68.8,29.91,SSW,212,0.0,3.1,84,0.04,,---,0.08,VWS V14.00,2015-09-02 08:19:00,
2015-09-02 03:24:00,73.9,68.8,29.91,SW,217,4.0,4.0,84,0.04,,---,0.08,VWS V14.00,2015-09-02 08:24:00,
2015-09-02 03:29:00,73.9,68.8,29.91,WSW,250,2.7,4.9,84,0.04,,---,0.08,VWS V14.00,2015-09-02 08:29:00,
2015-09-02 03:34:00,73.8,68.3,29.94,WSW,240,2.2,3.6,83,0.04,,---,0.08,VWS V14.00,2015-09-02 08:34:00,
2015-09-02 03:39:00,73.6,68.1,29.94,West,272,0.0,3.6,83,0.04,,---,0.08,VWS V14.00,2015-09-02 08:39:00,
2015-09-02 03:44:00,73.6,67.8,29.91,West,274,0.0,6.3,82,0.04,,---,0.08,VWS V14.00,2015-09-02 08:44:00,
2015-09-02 03:49:00,73.4,67.2,29.91,WSW,243,2.7,2.7,81,0.04,,---,0.08,VWS V14.00,2015-09-02 08:49:00,
2015-09-02 03:54:00,72.3,65.8,29.91,SW,231,12.8,15.4,80,0.04,,---,0.08,VWS V14.00,2015-09-02 08:54:00,
2015-09-02 03:59:00,70.5,55.5,29.97,SW,234,8.1,8.1,59,0.35,,---,0.39,VWS V14.00,2015-09-02 08:59:00,
2015-09-02 04:04:00,68.4,53.5,29.97,SW,234,8.1,8.1,59,0.43,,---,0.51,VWS V14.00,2015-09-02 09:04:00,
2015-09-02 04:09:00,68.0,56.7,29.97,NW,318,3.1,8.1,67,0.43,,---,0.51,VWS V14.00,2015-09-02 09:09:00,
2015-09-02 04:14:00,67.8,57.7,29.97,WNW,287,0.0,4.0,70,0.43,,---,0.51,VWS V14.00,2015-09-02 09:14:00,
2015-09-02 04:19:00,67.6,58.3,29.94,WNW,283,2.7,2.7,72,0.43,,---,0.51,VWS V14.00,2015-09-02 09:19:00,
2015-09-02 04:24:00,67.5,59.3,29.94,West,263,0.0,0.0,75,0.43,,---,0.51,VWS V14.00,2015-09-02 09:24:00,
2015-09-02 04:29:00,67.3,59.8,29.94,West,262,0.0,0.0,77,0.43,,---,0.51,VWS V14.00,2015-09-02 09:29:00,
2015-09-02 04:34:00,67.5,60.0,29.94,NNE,28,2.2,3.6,77,0.43,,---,0.51,VWS V14.00,2015-09-02 09:34:00,
2015-09-02 04:39:00,67.3,60.2,29.94,NNE,28,0.0,0.0,78,0.43,,---,0.51,VWS V14.00,2015-09-02 09:39:00,
2015-09-02 04:44:00,67.3,60.5,29.94,NNE,27,0.0,0.0,79,0.43,,---,0.51,VWS V14.00,2015-09-02 09:44:00,
2015-09-02 04:49:00,67.1,60.4,29.94,NNE,29,0.0,0.0,79,0.43,,---,0.51,VWS V14.00,2015-09-02 09:49:00,
2015-09-02 04:59:00,67.1,60.7,29.94,NNE,30,0.0,0.0,80,0.43,,---,0.51,VWS V14.00,2015-09-02 09:59:00,
2015-09-02 05:04:00,67.3,60.9,29.94,NNE,29,0.0,0.0,80,0.00,,---,0.51,VWS V14.00,2015-09-02 10:04:00,
2015-09-02 05:09:00,67.1,60.7,29.94,NNE,30,0.0,0.0,80,0.00,,---,0.51,VWS V14.00,2015-09-02 10:09:00,
2015-09-02 05:14:00,67.3,61.3,29.94,NNE,30,0.0,0.0,81,0.00,,---,0.51,VWS V14.00,2015-09-02 10:14:00,
2015-09-02 05:19:00,67.3,61.3,29.91,NNE,29,0.0,0.0,81,0.00,,---,0.51,VWS V14.00,2015-09-02 10:19:00,
2015-09-02 05:24:00,67.3,61.6,29.91,NNE,30,0.0,2.7,82,0.00,,---,0.51,VWS V14.00,2015-09-02 10:24:00,
2015-09-02 05:29:00,67.1,61.8,29.91,NNE,30,3.1,3.1,83,0.00,,---,0.51,VWS V14.00,2015-09-02 10:29:00,
2015-09-02 05:34:00,67.1,62.1,29.91,NNE,30,2.7,2.7,84,0.00,,---,0.51,VWS V14.00,2015-09-02 10:34:00,
2015-09-02 05:39:00,67.1,62.8,29.91,NE,48,3.1,4.0,86,0.00,,---,0.51,VWS V14.00,2015-09-02 10:39:00,
2015-09-02 05:44:00,66.9,62.9,29.91,ENE,76,2.7,3.6,87,0.00,,---,0.51,VWS V14.00,2015-09-02 10:44:00,
2015-09-02 05:49:00,66.9,62.9,29.91,ENE,75,0.0,2.7,87,0.00,,---,0.51,VWS V14.00,2015-09-02 10:49:00,
2015-09-02 05:55:00,66.9,62.9,29.91,ENE,75,0.0,0.0,87,0.00,,---,0.51,VWS V14.00,2015-09-02 10:55:00,
2015-09-02 05:59:00,66.7,62.8,29.91,South,186,4.0,4.0,87,0.00,,---,0.51,VWS V14.00,2015-09-02 10:59:00,
2015-09-02 06:05:00,66.7,63.1,29.91,SSW,205,2.2,2.2,88,0.00,,---,0.51,VWS V14.00,2015-09-02 11:05:00,
2015-09-02 06:10:00,66.7,63.1,29.91,SSW,206,2.2,2.2,88,0.00,,---,0.51,VWS V14.00,2015-09-02 11:10:00,
2015-09-02 06:15:00,66.7,63.1,29.91,SSW,205,0.0,3.6,88,0.00,,---,0.51,VWS V14.00,2015-09-02 11:15:00,
2015-09-02 06:20:00,66.7,63.1,29.91,SSW,205,0.0,0.0,88,0.00,,---,0.51,VWS V14.00,2015-09-02 11:20:00,
2015-09-02 06:25:00,66.7,63.4,29.91,ESE,123,2.7,3.1,89,0.00,,---,0.51,VWS V14.00,2015-09-02 11:25:00,
2015-09-02 06:30:00,66.7,63.4,29.91,ESE,122,0.0,0.0,89,0.31,,---,0.83,VWS V14.00,2015-09-02 11:30:00,
2015-09-02 06:35:00,66.9,63.6,29.91,ESE,122,0.0,0.0,89,0.31,,---,0.83,VWS V14.00,2015-09-02 11:35:00,
2015-09-02 06:40:00,66.9,63.6,29.91,ESE,122,0.0,0.0,89,0.31,,---,0.83,VWS V14.00,2015-09-02 11:40:00,
2015-09-02 06:45:00,66.9,63.6,29.91,ESE,122,0.0,0.0,89,0.31,,---,0.83,VWS V14.00,2015-09-02 11:45:00,
2015-09-02 06:50:00,66.9,63.6,29.91,ESE,123,0.0,0.0,89,0.31,,---,0.83,VWS V14.00,2015-09-02 11:50:00,
2015-09-02 06:55:00,66.9,63.6,29.91,ESE,123,0.0,0.0,89,0.31,,---,0.83,VWS V14.00,2015-09-02 11:55:00,
2015-09-02 07:00:00,67.1,64.1,29.94,ESE,123,0.0,0.0,90,0.31,,---,0.83,VWS V14.00,2015-09-02 12:00:00,
2015-09-02 07:05:00,67.1,64.1,29.94,ESE,123,0.0,0.0,90,0.31,,---,0.83,VWS V14.00,2015-09-02 12:05:00,
2015-09-02 07:10:00,67.1,64.1,29.94,ESE,123,0.0,0.0,90,0.31,,---,0.83,VWS V14.00,2015-09-02 12:10:00,
2015-09-02 07:15:00,67.1,64.4,29.94,ESE,122,0.0,0.0,91,0.31,,---,0.83,VWS V14.00,2015-09-02 12:15:00,
2015-09-02 07:20:00,67.3,64.6,29.94,ESE,119,0.0,0.0,91,0.31,,---,0.83,VWS V14.00,2015-09-02 12:20:00,
2015-09-02 07:25:00,67.5,64.8,29.94,ESE,119,0.0,0.0,91,0.31,,---,0.83,VWS V14.00,2015-09-02 12:25:00,
2015-09-02 07:30:00,67.6,65.2,29.94,ESE,119,0.0,0.0,92,0.00,,---,0.83,VWS V14.00,2015-09-02 12:30:00,
2015-09-02 07:35:00,67.8,65.4,29.94,ESE,119,0.0,0.0,92,0.00,,---,0.83,VWS V14.00,2015-09-02 12:35:00,
2015-09-02 07:40:00,68.0,65.6,29.94,ESE,119,0.0,0.0,92,0.00,,---,0.83,VWS V14.00,2015-09-02 12:40:00,
2015-09-02 07:45:00,68.2,65.8,29.94,ESE,119,0.0,0.0,92,0.00,,---,0.83,VWS V14.00,2015-09-02 12:45:00,
2015-09-02 07:50:00,68.4,65.9,29.94,ESE,119,0.0,0.0,92,0.00,,---,0.83,VWS V14.00,2015-09-02 12:50:00,
2015-09-02 07:55:00,68.5,66.1,29.94,SE,140,3.6,3.6,92,0.00,,---,0.83,VWS V14.00,2015-09-02 12:55:00,
2015-09-02 08:00:00,68.9,66.5,29.94,SE,140,2.7,2.7,92,0.00,,---,0.83,VWS V14.00,2015-09-02 13:00:00,
2015-09-02 08:05:00,69.1,66.7,29.94,SE,127,2.2,5.4,92,0.00,,---,0.83,VWS V14.00,2015-09-02 13:05:00,
2015-09-02 08:10:00,69.3,66.8,29.94,SSE,147,0.0,4.0,92,0.00,,---,0.83,VWS V14.00,2015-09-02 13:10:00,
2015-09-02 08:15:00,69.4,67.0,29.94,ESE,115,2.7,3.6,92,0.00,,---,0.83,VWS V14.00,2015-09-02 13:15:00,
2015-09-02 08:20:00,69.4,67.0,29.94,SE,132,3.1,3.1,92,0.00,,---,0.83,VWS V14.00,2015-09-02 13:20:00,
2015-09-02 08:25:00,69.6,67.2,29.94,SE,143,2.7,5.4,92,0.00,,---,0.83,VWS V14.00,2015-09-02 13:25:00,
2015-09-02 08:30:00,69.6,67.2,29.94,SE,141,2.7,6.3,92,0.00,,---,0.83,VWS V14.00,2015-09-02 13:30:00,
2015-09-02 08:35:00,69.8,67.1,29.94,SE,137,4.0,5.4,91,0.00,,---,0.83,VWS V14.00,2015-09-02 13:35:00,
2015-09-02 08:40:00,69.8,67.1,29.94,SE,140,2.7,5.4,91,0.00,,---,0.83,VWS V14.00,2015-09-02 13:40:00,
2015-09-02 08:41:00,70.0,67.2,29.94,SE,134,4.0,4.0,91,0.00,,---,0.83,VWS V14.00,2015-09-02 13:41:00,
2015-09-02 08:44:00,70.0,66.9,29.94,SSE,149,4.0,4.0,90,0.00,,---,0.83,VWS V14.00,2015-09-02 13:44:00,
2015-09-02 08:49:00,69.8,66.7,29.94,SSE,157,2.7,5.4,90,0.00,,---,0.83,VWS V14.00,2015-09-02 13:49:00,
2015-09-02 08:54:00,69.8,66.4,29.94,SE,135,3.6,5.4,89,0.00,,---,0.83,VWS V14.00,2015-09-02 13:54:00,
2015-09-02 08:59:00,69.8,65.4,29.94,SE,127,4.0,8.7,86,0.00,,---,0.83,VWS V14.00,2015-09-02 13:59:00,
2015-09-02 09:04:00,70.0,64.6,29.91,SE,139,3.1,6.3,83,0.00,,---,0.83,VWS V14.00,2015-09-02 14:04:00,
2015-09-02 09:09:00,70.3,63.5,29.91,South,173,6.3,8.1,79,0.00,,---,0.83,VWS V14.00,2015-09-02 14:09:00,
2015-09-02 09:14:00,70.5,62.2,29.91,SE,146,5.4,8.7,75,0.00,,---,0.83,VWS V14.00,2015-09-02 14:14:00,
2015-09-02 09:19:00,70.9,60.6,29.91,SE,127,4.0,8.3,70,0.00,,---,0.83,VWS V14.00,2015-09-02 14:19:00,
2015-09-02 09:24:00,71.4,60.7,29.91,SE,145,4.9,7.6,69,0.00,,---,0.83,VWS V14.00,2015-09-02 14:24:00,
2015-09-02 09:29:00,71.8,59.0,29.91,East,99,2.7,8.3,64,0.00,,---,0.83,VWS V14.00,2015-09-02 14:29:00,
2015-09-02 09:34:00,71.8,57.6,29.91,SSE,149,5.8,6.3,61,0.00,,---,0.83,VWS V14.00,2015-09-02 14:34:00,
2015-09-02 09:39:00,71.6,57.0,29.91,SSE,157,4.9,6.3,60,0.00,,---,0.83,VWS V14.00,2015-09-02 14:39:00,
2015-09-02 09:44:00,71.4,57.7,29.91,SE,144,4.0,6.3,62,0.00,,---,0.83,VWS V14.00,2015-09-02 14:44:00,
2015-09-02 09:49:00,71.2,57.6,29.91,SE,135,5.4,6.3,62,0.00,,---,0.83,VWS V14.00,2015-09-02 14:49:00,
2015-09-02 09:54:00,71.1,57.4,29.91,ESE,109,4.9,4.9,62,0.00,,---,0.83,VWS V14.00,2015-09-02 14:54:00,
2015-09-02 09:59:00,70.9,57.7,29.91,SE,128,4.9,7.6,63,0.00,,---,0.83,VWS V14.00,2015-09-02 14:59:00,
2015-09-02 10:04:00,70.9,57.7,29.94,SE,133,2.2,4.0,63,0.00,,---,0.83,VWS V14.00,2015-09-02 15:04:00,
2015-09-02 10:09:00,70.9,58.5,29.94,SE,133,2.2,4.0,65,0.00,,---,0.83,VWS V14.00,2015-09-02 15:09:00,
2015-09-02 10:14:00,70.9,58.5,29.94,SE,124,0.0,3.6,65,0.00,,---,0.83,VWS V14.00,2015-09-02 15:14:00,
2015-09-02 10:19:00,71.1,59.1,29.94,SSW,196,2.7,2.7,66,0.00,,---,0.83,VWS V14.00,2015-09-02 15:19:00,
2015-09-02 10:24:00,71.1,58.7,29.94,SE,138,4.9,5.4,65,0.00,,---,0.83,VWS V14.00,2015-09-02 15:24:00,
2015-09-02 10:29:00,71.6,58.8,29.94,SE,138,2.7,5.8,64,0.00,,---,0.83,VWS V14.00,2015-09-02 15:29:00,
2015-09-02 10:34:00,72.0,58.7,29.94,ESE,108,0.0,3.6,63,0.00,,---,0.83,VWS V14.00,2015-09-02 15:34:00,
2015-09-02 10:39:00,71.8,57.2,29.94,ESE,106,3.6,6.7,60,0.00,,---,0.83,VWS V14.00,2015-09-02 15:39:00,
2015-09-02 10:44:00,71.8,56.2,29.94,SE,139,2.7,4.9,58,0.00,,---,0.83,VWS V14.00,2015-09-02 15:44:00,
2015-09-02 10:49:00,71.6,56.1,29.94,ENE,65,2.2,5.4,58,0.00,,---,0.83,VWS V14.00,2015-09-02 15:49:00,
2015-09-02 10:54:00,71.4,56.4,29.94,SE,136,3.6,6.3,59,0.00,,---,0.83,VWS V14.00,2015-09-02 15:54:00,
2015-09-02 10:59:00,71.4,56.8,29.94,East,96,3.6,5.4,60,0.00,,---,0.83,VWS V14.00,2015-09-02 15:59:00,
2015-09-02 11:04:00,71.4,56.8,29.94,ESE,123,4.0,8.1,60,0.00,,---,0.83,VWS V14.00,2015-09-02 16:04:00,
2015-09-02 11:09:00,71.2,56.7,29.94,ESE,122,6.3,7.6,60,0.00,,---,0.83,VWS V14.00,2015-09-02 16:09:00,
2015-09-02 11:15:00,71.2,56.7,29.94,SE,130,6.3,8.1,60,0.00,,---,0.83,VWS V14.00,2015-09-02 16:15:00,
2015-09-02 11:19:00,71.2,56.7,29.94,SE,129,6.3,6.3,60,0.00,,---,0.83,VWS V14.00,2015-09-02 16:19:00,
2015-09-02 11:25:00,71.4,56.4,29.94,ESE,119,4.0,8.1,59,0.00,,---,0.83,VWS V14.00,2015-09-02 16:25:00,
2015-09-02 11:30:00,71.6,55.6,29.94,SSE,165,3.6,6.3,57,0.00,,---,0.83,VWS V14.00,2015-09-02 16:30:00,